^^
Station Historical Data
Daily Summary for March 6, 2017 Units:  Both    English   Metric
« Previous Day
Next Day »
Daily Weekly Monthly Yearly Custom
  High: Low: Average:
Temperature: 84.6 °F /  29.2 °C 63.9 °F /  17.7 °C 70.2 °F /  21.2 °C
Dew Point: 64.9 °F /  18.3 °C 55.4 °F /  13 °C 60.6 °F /  15.9 °C
Humidity: 91% 42% 74%
Wind Speed: 11.0mph /  17.7km/h - 2mph /  3.2km/h
Wind Gust: 17.0mph /  27.4km/h - -
Wind- - ESE
Pressure: 29.80 in /  1009 hPa 29.67 in /  1004.6 hPa -
Precipitation: 0.24 in /  6.1 mm    
Historical Graphs
 
 
Tabular Data for March 6, 2017
Time Temperature Dew Point Pressure Wind Wind Speed Wind Gust Humidity Rainfall Rate (Hourly) solar Conditions
00:03 64.6 °F /  18.1 °C 60.3 °F /  15.7 °C 29.80in /  1009hPa ESE 0.9mph /  1.4km/h 1.0mph /  1.6km/h 86% 0.00in /  0mm 0.0 W/m2
00:09 64.6 °F /  18.1 °C 60.6 °F /  15.9 °C 29.80in /  1009hPa Calm   3.0mph /  4.8km/h 87% 0.01in /  0.25mm 0.0 W/m2
00:15 64.6 °F /  18.1 °C 60.6 °F /  15.9 °C 29.79in /  1008.7hPa WSW 0.9mph /  1.4km/h 5.0mph /  8km/h 87% 0.01in /  0.25mm 0.0 W/m2
00:22 64.6 °F /  18.1 °C 60.3 °F /  15.7 °C 29.79in /  1008.7hPa SSW 0.9mph /  1.4km/h 2.0mph /  3.2km/h 86% 0.01in /  0.25mm 0.0 W/m2
00:28 64.4 °F /  18 °C 60.1 °F /  15.6 °C 29.79in /  1008.7hPa ESE 2.9mph /  4.7km/h 5.0mph /  8km/h 86% 0.01in /  0.25mm 0.0 W/m2
00:34 64.2 °F /  17.9 °C 59.9 °F /  15.5 °C 29.79in /  1008.7hPa South 2.0mph /  3.2km/h 6.0mph /  9.7km/h 86% 0.01in /  0.25mm 0.0 W/m2
00:40 64.2 °F /  17.9 °C 59.5 °F /  15.3 °C 29.79in /  1008.7hPa Calm   5.0mph /  8km/h 85% 0.01in /  0.25mm 0.0 W/m2
00:46 64.2 °F /  17.9 °C 60.3 °F /  15.7 °C 29.78in /  1008.4hPa Calm   2.0mph /  3.2km/h 87% 0.01in /  0.25mm 0.0 W/m2
00:52 64.0 °F /  17.8 °C 60.1 °F /  15.6 °C 29.79in /  1008.7hPa Calm   2.0mph /  3.2km/h 87% 0.01in /  0.25mm 0.0 W/m2
00:58 64.0 °F /  17.8 °C 60.1 °F /  15.6 °C 29.78in /  1008.4hPa Calm   1.0mph /  1.6km/h 87% 0.01in /  0.25mm 0.0 W/m2
01:04 64.0 °F /  17.8 °C 59.7 °F /  15.4 °C 29.78in /  1008.4hPa SE 0.9mph /  1.4km/h 3.0mph /  4.8km/h 86% 0.01in /  0.25mm 0.0 W/m2
01:10 64.0 °F /  17.8 °C 59.4 °F /  15.2 °C 29.78in /  1008.4hPa SE 0.9mph /  1.4km/h 4.0mph /  6.4km/h 85% 0.00in /  0mm 0.0 W/m2
01:17 64.2 °F /  17.9 °C 59.4 °F /  15.2 °C 29.78in /  1008.4hPa Calm   3.0mph /  4.8km/h 84% 0.00in /  0mm 0.0 W/m2
01:23 64.4 °F /  18 °C 58.8 °F /  14.9 °C 29.78in /  1008.4hPa SSE 2.0mph /  3.2km/h 6.0mph /  9.7km/h 82% 0.00in /  0mm 0.0 W/m2
01:29 64.6 °F /  18.1 °C 59.4 °F /  15.2 °C 29.79in /  1008.7hPa SSW 2.0mph /  3.2km/h 9.0mph /  14.5km/h 83% 0.00in /  0mm 0.0 W/m2
01:35 64.4 °F /  18 °C 59.5 °F /  15.3 °C 29.79in /  1008.7hPa West 0.9mph /  1.4km/h 3.0mph /  4.8km/h 84% 0.00in /  0mm 0.0 W/m2
01:41 64.2 °F /  17.9 °C 59.4 °F /  15.2 °C 29.79in /  1008.7hPa Calm   3.0mph /  4.8km/h 84% 0.00in /  0mm 0.0 W/m2
01:47 64.0 °F /  17.8 °C 59.2 °F /  15.1 °C 29.79in /  1008.7hPa Calm   1.0mph /  1.6km/h 84% 0.00in /  0mm 0.0 W/m2
01:54 63.9 °F /  17.7 °C 59.2 °F /  15.1 °C 29.79in /  1008.7hPa Calm   5.0mph /  8km/h 85% 0.00in /  0mm 0.0 W/m2
02:00 63.9 °F /  17.7 °C 58.6 °F /  14.8 °C 29.79in /  1008.7hPa SE 2.0mph /  3.2km/h 3.0mph /  4.8km/h 83% 0.00in /  0mm 0.0 W/m2
02:06 64.0 °F /  17.8 °C 58.5 °F /  14.7 °C 29.78in /  1008.4hPa SSE 2.0mph /  3.2km/h 6.0mph /  9.7km/h 82% 0.00in /  0mm 0.0 W/m2
02:12 64.2 °F /  17.9 °C 58.6 °F /  14.8 °C 29.78in /  1008.4hPa SE 2.0mph /  3.2km/h 5.0mph /  8km/h 82% 0.00in /  0mm 0.0 W/m2
02:18 64.6 °F /  18.1 °C 59.0 °F /  15 °C 29.78in /  1008.4hPa South 0.9mph /  1.4km/h 1.0mph /  1.6km/h 82% 0.00in /  0mm 0.0 W/m2
02:24 64.4 °F /  18 °C 58.8 °F /  14.9 °C 29.78in /  1008.4hPa ESE 2.9mph /  4.7km/h 3.0mph /  4.8km/h 82% 0.00in /  0mm 0.0 W/m2
02:30 64.6 °F /  18.1 °C 59.0 °F /  15 °C 29.78in /  1008.4hPa ESE 4.0mph /  6.4km/h 4.0mph /  6.4km/h 82% 0.00in /  0mm 0.0 W/m2
02:36 64.6 °F /  18.1 °C 59.0 °F /  15 °C 29.78in /  1008.4hPa ESE 2.9mph /  4.7km/h 7.0mph /  11.3km/h 82% 0.00in /  0mm 0.0 W/m2
02:42 64.9 °F /  18.3 °C 58.3 °F /  14.6 °C 29.78in /  1008.4hPa South 4.0mph /  6.4km/h 8.0mph /  12.9km/h 79% 0.00in /  0mm 0.0 W/m2
02:49 65.5 °F /  18.6 °C 58.5 °F /  14.7 °C 29.78in /  1008.4hPa SSE 4.0mph /  6.4km/h 7.0mph /  11.3km/h 78% 0.00in /  0mm 0.0 W/m2
02:55 65.7 °F /  18.7 °C 59.0 °F /  15 °C 29.78in /  1008.4hPa SE 4.9mph /  7.9km/h 9.0mph /  14.5km/h 79% 0.00in /  0mm 0.0 W/m2
03:01 65.7 °F /  18.7 °C 58.6 °F /  14.8 °C 29.78in /  1008.4hPa SE 4.9mph /  7.9km/h 13.0mph /  20.9km/h 78% 0.00in /  0mm 0.0 W/m2
03:07 65.7 °F /  18.7 °C 59.0 °F /  15 °C 29.78in /  1008.4hPa SE 4.0mph /  6.4km/h 11.0mph /  17.7km/h 79% 0.00in /  0mm 0.0 W/m2
03:13 65.5 °F /  18.6 °C 59.2 °F /  15.1 °C 29.77in /  1008hPa ESE 2.9mph /  4.7km/h 9.0mph /  14.5km/h 80% 0.00in /  0mm 0.0 W/m2
03:19 65.1 °F /  18.4 °C 58.8 °F /  14.9 °C 29.77in /  1008hPa Calm   6.0mph /  9.7km/h 80% 0.00in /  0mm 0.0 W/m2
03:25 64.9 °F /  18.3 °C 59.0 °F /  15 °C 29.76in /  1007.7hPa SE 4.9mph /  7.9km/h 10.0mph /  16.1km/h 81% 0.00in /  0mm 0.0 W/m2
03:32 64.9 °F /  18.3 °C 59.0 °F /  15 °C 29.75in /  1007.3hPa SSE 6.9mph /  11.1km/h 7.0mph /  11.3km/h 81% 0.00in /  0mm 0.0 W/m2
03:38 64.9 °F /  18.3 °C 59.0 °F /  15 °C 29.76in /  1007.7hPa SE 2.9mph /  4.7km/h 3.0mph /  4.8km/h 81% 0.00in /  0mm 0.0 W/m2
03:44 64.9 °F /  18.3 °C 58.3 °F /  14.6 °C 29.75in /  1007.3hPa SSE 6.0mph /  9.7km/h 7.0mph /  11.3km/h 79% 0.00in /  0mm 0.0 W/m2
03:50 64.9 °F /  18.3 °C 57.6 °F /  14.2 °C 29.75in /  1007.3hPa SE 2.0mph /  3.2km/h 4.0mph /  6.4km/h 77% 0.00in /  0mm 0.0 W/m2
03:56 64.9 °F /  18.3 °C 58.3 °F /  14.6 °C 29.75in /  1007.3hPa SSW 0.9mph /  1.4km/h 1.0mph /  1.6km/h 79% 0.00in /  0mm 0.0 W/m2
04:02 64.9 °F /  18.3 °C 57.6 °F /  14.2 °C 29.74in /  1007hPa Calm   1.0mph /  1.6km/h 77% 0.00in /  0mm 0.0 W/m2
04:08 64.9 °F /  18.3 °C 57.6 °F /  14.2 °C 29.74in /  1007hPa Calm   1.0mph /  1.6km/h 77% 0.00in /  0mm 0.0 W/m2
04:14 64.8 °F /  18.2 °C 58.1 °F /  14.5 °C 29.73in /  1006.7hPa Calm   1.0mph /  1.6km/h 79% 0.00in /  0mm 0.0 W/m2
04:21 64.8 °F /  18.2 °C 58.1 °F /  14.5 °C 29.72in /  1006.3hPa Calm     79% 0.00in /  0mm 0.0 W/m2
04:27 64.8 °F /  18.2 °C 57.7 °F /  14.3 °C 29.72in /  1006.3hPa Calm   2.0mph /  3.2km/h 78% 0.00in /  0mm 0.0 W/m2
04:33 64.8 °F /  18.2 °C 58.5 °F /  14.7 °C 29.73in /  1006.7hPa SSE 2.0mph /  3.2km/h 3.0mph /  4.8km/h 80% 0.00in /  0mm 0.0 W/m2
04:39 64.8 °F /  18.2 °C 58.5 °F /  14.7 °C 29.73in /  1006.7hPa Calm     80% 0.00in /  0mm 0.0 W/m2
04:45 64.6 °F /  18.1 °C 58.3 °F /  14.6 °C 29.74in /  1007hPa Calm     80% 0.00in /  0mm 0.0 W/m2
04:51 64.6 °F /  18.1 °C 58.6 °F /  14.8 °C 29.73in /  1006.7hPa Calm   1.0mph /  1.6km/h 81% 0.00in /  0mm 0.0 W/m2
04:57 64.4 °F /  18 °C 58.5 °F /  14.7 °C 29.73in /  1006.7hPa Calm   1.0mph /  1.6km/h 81% 0.00in /  0mm 0.0 W/m2
05:04 64.2 °F /  17.9 °C 57.9 °F /  14.4 °C 29.73in /  1006.7hPa East 0.9mph /  1.4km/h 2.0mph /  3.2km/h 80% 0.00in /  0mm 0.0 W/m2
05:10 64.0 °F /  17.8 °C 57.4 °F /  14.1 °C 29.73in /  1006.7hPa Calm     79% 0.01in /  0.25mm 0.0 W/m2
05:16 63.9 °F /  17.7 °C 56.8 °F /  13.8 °C 29.73in /  1006.7hPa ESE 0.9mph /  1.4km/h 1.0mph /  1.6km/h 78% 0.01in /  0.25mm 0.0 W/m2
05:22 63.9 °F /  17.7 °C 56.1 °F /  13.4 °C 29.73in /  1006.7hPa Calm     76% 0.01in /  0.25mm 0.0 W/m2
05:28 64.0 °F /  17.8 °C 56.7 °F /  13.7 °C 29.73in /  1006.7hPa Calm     77% 0.01in /  0.25mm 0.0 W/m2
05:34 64.0 °F /  17.8 °C 57.0 °F /  13.9 °C 29.73in /  1006.7hPa Calm     78% 0.01in /  0.25mm 0.0 W/m2
05:40 63.9 °F /  17.7 °C 56.8 °F /  13.8 °C 29.73in /  1006.7hPa Calm     78% 0.01in /  0.25mm 0.0 W/m2
05:46 63.9 °F /  17.7 °C 56.8 °F /  13.8 °C 29.73in /  1006.7hPa Calm   2.0mph /  3.2km/h 78% 0.01in /  0.25mm 0.0 W/m2
05:52 63.9 °F /  17.7 °C 56.5 °F /  13.6 °C 29.73in /  1006.7hPa SE 2.0mph /  3.2km/h 5.0mph /  8km/h 77% 0.01in /  0.25mm 0.0 W/m2
05:59 64.2 °F /  17.9 °C 55.4 °F /  13 °C 29.73in /  1006.7hPa Calm   1.0mph /  1.6km/h 73% 0.01in /  0.25mm 0.0 W/m2
06:05 64.8 °F /  18.2 °C 57.7 °F /  14.3 °C 29.73in /  1006.7hPa Calm   1.0mph /  1.6km/h 78% 0.00in /  0mm 0.0 W/m2
06:11 64.6 °F /  18.1 °C 57.2 °F /  14 °C 29.74in /  1007hPa Calm     77% 0.00in /  0mm 0.0 W/m2
06:17 64.6 °F /  18.1 °C 57.6 °F /  14.2 °C 29.74in /  1007hPa Calm     78% 0.00in /  0mm 0.0 W/m2
06:23 64.6 °F /  18.1 °C 57.2 °F /  14 °C 29.74in /  1007hPa Calm     77% 0.00in /  0mm 0.0 W/m2
06:29 64.4 °F /  18 °C 57.0 °F /  13.9 °C 29.74in /  1007hPa Calm     77% 0.00in /  0mm 0.0 W/m2
06:36 64.2 °F /  17.9 °C 57.6 °F /  14.2 °C 29.75in /  1007.3hPa Calm     79% 0.00in /  0mm 0.0 W/m2
06:42 64.2 °F /  17.9 °C 57.6 °F /  14.2 °C 29.75in /  1007.3hPa Calm     79% 0.00in /  0mm 0.0 W/m2
06:48 64.2 °F /  17.9 °C 57.6 °F /  14.2 °C 29.75in /  1007.3hPa Calm     79% 0.00in /  0mm 0.0 W/m2
06:54 64.2 °F /  17.9 °C 57.9 °F /  14.4 °C 29.75in /  1007.3hPa Calm     80% 0.00in /  0mm 7.0 W/m2
07:00 64.0 °F /  17.8 °C 58.1 °F /  14.5 °C 29.75in /  1007.3hPa Calm     81% 0.00in /  0mm 12.0 W/m2
07:06 64.0 °F /  17.8 °C 58.1 °F /  14.5 °C 29.75in /  1007.3hPa Calm     81% 0.00in /  0mm 18.0 W/m2
07:12 64.0 °F /  17.8 °C 58.5 °F /  14.7 °C 29.75in /  1007.3hPa Calm     82% 0.00in /  0mm 25.0 W/m2
07:18 64.0 °F /  17.8 °C 58.5 °F /  14.7 °C 29.76in /  1007.7hPa Calm     82% 0.00in /  0mm 33.0 W/m2
07:24 64.0 °F /  17.8 °C 58.5 °F /  14.7 °C 29.76in /  1007.7hPa Calm     82% 0.00in /  0mm 42.0 W/m2
07:30 64.2 °F /  17.9 °C 58.3 °F /  14.6 °C 29.76in /  1007.7hPa Calm     81% 0.00in /  0mm 49.0 W/m2
07:37 64.2 °F /  17.9 °C 58.6 °F /  14.8 °C 29.76in /  1007.7hPa Calm     82% 0.00in /  0mm 63.0 W/m2
07:43 64.6 °F /  18.1 °C 59.0 °F /  15 °C 29.76in /  1007.7hPa Calm     82% 0.00in /  0mm 70.0 W/m2
07:49 64.8 °F /  18.2 °C 58.8 °F /  14.9 °C 29.77in /  1008hPa Calm     81% 0.00in /  0mm 84.0 W/m2
07:55 64.9 °F /  18.3 °C 59.4 °F /  15.2 °C 29.77in /  1008hPa Calm     82% 0.00in /  0mm 97.0 W/m2
08:01 65.3 °F /  18.5 °C 59.4 °F /  15.2 °C 29.77in /  1008hPa Calm     81% 0.00in /  0mm 104.0 W/m2
08:07 65.7 °F /  18.7 °C 60.1 °F /  15.6 °C 29.78in /  1008.4hPa Calm     82% 0.00in /  0mm 121.0 W/m2
08:14 66.0 °F /  18.9 °C 59.7 °F /  15.4 °C 29.78in /  1008.4hPa Calm     80% 0.00in /  0mm 132.0 W/m2
08:20 66.4 °F /  19.1 °C 59.7 °F /  15.4 °C 29.78in /  1008.4hPa Calm   1.0mph /  1.6km/h 79% 0.00in /  0mm 151.0 W/m2
08:26 66.9 °F /  19.4 °C 59.5 °F /  15.3 °C 29.78in /  1008.4hPa Calm     77% 0.00in /  0mm 178.0 W/m2
08:32 67.5 °F /  19.7 °C 60.1 °F /  15.6 °C 29.78in /  1008.4hPa Calm   3.0mph /  4.8km/h 77% 0.00in /  0mm 193.0 W/m2
08:38 68.2 °F /  20.1 °C 59.2 °F /  15.1 °C 29.78in /  1008.4hPa Calm   7.0mph /  11.3km/h 73% 0.00in /  0mm 188.0 W/m2
08:44 68.9 °F /  20.5 °C 59.9 °F /  15.5 °C 29.78in /  1008.4hPa ESE 0.9mph /  1.4km/h 6.0mph /  9.7km/h 73% 0.00in /  0mm 178.0 W/m2
08:50 69.4 °F /  20.8 °C 59.5 °F /  15.3 °C 29.78in /  1008.4hPa Calm   9.0mph /  14.5km/h 71% 0.00in /  0mm 181.0 W/m2
08:57 70.2 °F /  21.2 °C 60.3 °F /  15.7 °C 29.78in /  1008.4hPa West 0.9mph /  1.4km/h 4.0mph /  6.4km/h 71% 0.00in /  0mm 163.0 W/m2
09:03 70.9 °F /  21.6 °C 60.3 °F /  15.7 °C 29.78in /  1008.4hPa ESE 4.0mph /  6.4km/h 7.0mph /  11.3km/h 69% 0.00in /  0mm 148.0 W/m2
09:09 71.4 °F /  21.9 °C 60.3 °F /  15.7 °C 29.78in /  1008.4hPa SE 2.0mph /  3.2km/h 7.0mph /  11.3km/h 68% 0.00in /  0mm 153.0 W/m2
09:15 72.0 °F /  22.2 °C 60.8 °F /  16 °C 29.78in /  1008.4hPa SSE 4.9mph /  7.9km/h 6.0mph /  9.7km/h 68% 0.00in /  0mm 174.0 W/m2
09:21 72.1 °F /  22.3 °C 60.6 °F /  15.9 °C 29.78in /  1008.4hPa ESE 4.9mph /  7.9km/h 9.0mph /  14.5km/h 67% 0.00in /  0mm 193.0 W/m2
09:27 72.3 °F /  22.4 °C 60.3 °F /  15.7 °C 29.78in /  1008.4hPa SE 4.0mph /  6.4km/h 7.0mph /  11.3km/h 66% 0.00in /  0mm 670.0 W/m2
09:33 72.7 °F /  22.6 °C 60.3 °F /  15.7 °C 29.78in /  1008.4hPa ENE 2.0mph /  3.2km/h 7.0mph /  11.3km/h 65% 0.00in /  0mm 431.0 W/m2
09:39 73.0 °F /  22.8 °C 60.6 °F /  15.9 °C 29.78in /  1008.4hPa ESE 2.0mph /  3.2km/h 8.0mph /  12.9km/h 65% 0.00in /  0mm 694.0 W/m2
09:45 73.8 °F /  23.2 °C 60.8 °F /  16 °C 29.78in /  1008.4hPa East 6.9mph /  11.1km/h 7.0mph /  11.3km/h 64% 0.00in /  0mm 675.0 W/m2
09:51 74.5 °F /  23.6 °C 61.0 °F /  16.1 °C 29.78in /  1008.4hPa NE 0.9mph /  1.4km/h 4.0mph /  6.4km/h 63% 0.00in /  0mm 689.0 W/m2
09:58 75.4 °F /  24.1 °C 60.4 °F /  15.8 °C 29.78in /  1008.4hPa East 4.0mph /  6.4km/h 6.0mph /  9.7km/h 60% 0.00in /  0mm 698.0 W/m2
10:04 75.9 °F /  24.4 °C 60.6 °F /  15.9 °C 29.78in /  1008.4hPa ESE 8.1mph /  13km/h 14.0mph /  22.5km/h 59% 0.00in /  0mm 710.0 W/m2
10:10 76.3 °F /  24.6 °C 60.4 °F /  15.8 °C 29.78in /  1008.4hPa East 8.1mph /  13km/h 11.0mph /  17.7km/h 58% 0.00in /  0mm 728.0 W/m2
10:16 76.3 °F /  24.6 °C 60.4 °F /  15.8 °C 29.77in /  1008hPa ESE 2.9mph /  4.7km/h 9.0mph /  14.5km/h 58% 0.00in /  0mm 742.0 W/m2
10:22 76.5 °F /  24.7 °C 60.1 °F /  15.6 °C 29.78in /  1008.4hPa East 2.9mph /  4.7km/h 8.0mph /  12.9km/h 57% 0.00in /  0mm 765.0 W/m2
10:28 76.8 °F /  24.9 °C 59.9 °F /  15.5 °C 29.78in /  1008.4hPa East 2.0mph /  3.2km/h 10.0mph /  16.1km/h 56% 0.00in /  0mm 788.0 W/m2
10:34 77.0 °F /  25 °C 59.5 °F /  15.3 °C 29.78in /  1008.4hPa SE 4.9mph /  7.9km/h 9.0mph /  14.5km/h 55% 0.00in /  0mm 814.0 W/m2
10:40 77.2 °F /  25.1 °C 60.3 °F /  15.7 °C 29.78in /  1008.4hPa East 2.9mph /  4.7km/h 11.0mph /  17.7km/h 56% 0.00in /  0mm 847.0 W/m2
10:47 77.7 °F /  25.4 °C 60.8 °F /  16 °C 29.78in /  1008.4hPa Calm   9.0mph /  14.5km/h 56% 0.00in /  0mm 705.0 W/m2
10:53 78.3 °F /  25.7 °C 60.8 °F /  16 °C 29.78in /  1008.4hPa SE 8.1mph /  13km/h 8.1mph /  13km/h 55% 0.00in /  0mm 870.0 W/m2
10:59 78.8 °F /  26 °C 60.8 °F /  16 °C 29.78in /  1008.4hPa NNE 0.9mph /  1.4km/h 6.0mph /  9.7km/h 54% 0.00in /  0mm 928.0 W/m2
11:05 79.0 °F /  26.1 °C 61.0 °F /  16.1 °C 29.79in /  1008.7hPa SE 2.0mph /  3.2km/h 7.0mph /  11.3km/h 54% 0.00in /  0mm 947.0 W/m2
11:11 79.2 °F /  26.2 °C 61.2 °F /  16.2 °C 29.78in /  1008.4hPa SE 8.1mph /  13km/h 10.0mph /  16.1km/h 54% 0.00in /  0mm 956.0 W/m2
11:17 79.2 °F /  26.2 °C 61.2 °F /  16.2 °C 29.78in /  1008.4hPa ESE 2.9mph /  4.7km/h 11.0mph /  17.7km/h 54% 0.00in /  0mm 976.0 W/m2
11:23 79.3 °F /  26.3 °C 60.8 °F /  16 °C 29.78in /  1008.4hPa WSW 0.9mph /  1.4km/h 9.0mph /  14.5km/h 53% 0.00in /  0mm 984.0 W/m2
11:30 79.7 °F /  26.5 °C 59.9 °F /  15.5 °C 29.78in /  1008.4hPa East 8.9mph /  14.3km/h 12.0mph /  19.3km/h 51% 0.00in /  0mm 976.0 W/m2
11:36 79.7 °F /  26.5 °C 59.9 °F /  15.5 °C 29.78in /  1008.4hPa SE 6.0mph /  9.7km/h 12.0mph /  19.3km/h 51% 0.00in /  0mm 972.0 W/m2
11:42 80.1 °F /  26.7 °C 60.3 °F /  15.7 °C 29.78in /  1008.4hPa SSE 4.9mph /  7.9km/h 9.0mph /  14.5km/h 51% 0.00in /  0mm 1000.0 W/m2
11:48 80.2 °F /  26.8 °C 61.0 °F /  16.1 °C 29.78in /  1008.4hPa ENE 4.0mph /  6.4km/h 7.0mph /  11.3km/h 52% 0.00in /  0mm 1013.0 W/m2
11:54 80.8 °F /  27.1 °C 60.4 °F /  15.8 °C 29.77in /  1008hPa ESE 4.9mph /  7.9km/h 8.0mph /  12.9km/h 50% 0.00in /  0mm 1004.0 W/m2
12:00 81.1 °F /  27.3 °C 60.1 °F /  15.6 °C 29.77in /  1008hPa ENE 8.9mph /  14.3km/h 9.0mph /  14.5km/h 49% 0.00in /  0mm 1037.0 W/m2
12:06 81.1 °F /  27.3 °C 59.5 °F /  15.3 °C 29.77in /  1008hPa ESE 4.0mph /  6.4km/h 9.0mph /  14.5km/h 48% 0.00in /  0mm 1060.0 W/m2
12:12 81.0 °F /  27.2 °C 59.4 °F /  15.2 °C 29.77in /  1008hPa ESE 4.9mph /  7.9km/h 11.0mph /  17.7km/h 48% 0.00in /  0mm 1086.0 W/m2
12:19 80.4 °F /  26.9 °C 59.5 °F /  15.3 °C 29.77in /  1008hPa South 4.0mph /  6.4km/h 13.0mph /  20.9km/h 49% 0.00in /  0mm 1099.0 W/m2
12:25 80.8 °F /  27.1 °C 60.4 °F /  15.8 °C 29.77in /  1008hPa East 8.1mph /  13km/h 8.1mph /  13km/h 50% 0.00in /  0mm 1167.0 W/m2
12:31 81.0 °F /  27.2 °C 60.6 °F /  15.9 °C 29.77in /  1008hPa ENE 2.9mph /  4.7km/h 12.0mph /  19.3km/h 50% 0.00in /  0mm 1148.0 W/m2
12:37 81.0 °F /  27.2 °C 60.6 °F /  15.9 °C 29.77in /  1008hPa NNE 4.9mph /  7.9km/h 7.0mph /  11.3km/h 50% 0.00in /  0mm 290.0 W/m2
12:43 81.3 °F /  27.4 °C 62.1 °F /  16.7 °C 29.76in /  1007.7hPa East 6.9mph /  11.1km/h 10.0mph /  16.1km/h 52% 0.00in /  0mm 323.0 W/m2
12:49 81.3 °F /  27.4 °C 61.0 °F /  16.1 °C 29.76in /  1007.7hPa SSE 2.9mph /  4.7km/h 10.0mph /  16.1km/h 50% 0.00in /  0mm 1085.0 W/m2
12:55 81.7 °F /  27.6 °C 60.6 °F /  15.9 °C 29.76in /  1007.7hPa NE 0.9mph /  1.4km/h 9.0mph /  14.5km/h 49% 0.00in /  0mm 1111.0 W/m2
13:01 82.0 °F /  27.8 °C 61.0 °F /  16.1 °C 29.75in /  1007.3hPa ENE 2.0mph /  3.2km/h 10.0mph /  16.1km/h 49% 0.00in /  0mm 186.0 W/m2
13:08 81.7 °F /  27.6 °C 60.1 °F /  15.6 °C 29.75in /  1007.3hPa ESE 4.9mph /  7.9km/h 10.0mph /  16.1km/h 48% 0.00in /  0mm 951.0 W/m2
13:14 81.1 °F /  27.3 °C 60.1 °F /  15.6 °C 29.75in /  1007.3hPa SSE 4.9mph /  7.9km/h 8.0mph /  12.9km/h 49% 0.00in /  0mm 1139.0 W/m2
13:20 80.6 °F /  27 °C 59.7 °F /  15.4 °C 29.75in /  1007.3hPa SE 4.9mph /  7.9km/h 9.0mph /  14.5km/h 49% 0.00in /  0mm 251.0 W/m2
13:26 80.6 °F /  27 °C 59.7 °F /  15.4 °C 29.75in /  1007.3hPa East 4.0mph /  6.4km/h 11.0mph /  17.7km/h 49% 0.00in /  0mm 221.0 W/m2
13:32 80.8 °F /  27.1 °C 59.9 °F /  15.5 °C 29.74in /  1007hPa East 4.0mph /  6.4km/h 8.0mph /  12.9km/h 49% 0.00in /  0mm 1111.0 W/m2
13:38 81.7 °F /  27.6 °C 59.5 °F /  15.3 °C 29.74in /  1007hPa East 4.0mph /  6.4km/h 7.0mph /  11.3km/h 47% 0.00in /  0mm 1150.0 W/m2
13:44 82.6 °F /  28.1 °C 60.3 °F /  15.7 °C 29.74in /  1007hPa ESE 2.9mph /  4.7km/h 12.0mph /  19.3km/h 47% 0.00in /  0mm 246.0 W/m2
13:51 81.3 °F /  27.4 °C 59.2 °F /  15.1 °C 29.74in /  1007hPa SE 2.0mph /  3.2km/h 16.0mph /  25.7km/h 47% 0.00in /  0mm 281.0 W/m2
13:57 80.8 °F /  27.1 °C 59.9 °F /  15.5 °C 29.73in /  1006.7hPa South 0.9mph /  1.4km/h 3.0mph /  4.8km/h 49% 0.00in /  0mm 329.0 W/m2
14:03 81.0 °F /  27.2 °C 60.6 °F /  15.9 °C 29.73in /  1006.7hPa SSE 4.9mph /  7.9km/h 7.0mph /  11.3km/h 50% 0.00in /  0mm 329.0 W/m2
14:09 81.7 °F /  27.6 °C 60.6 °F /  15.9 °C 29.72in /  1006.3hPa East 4.0mph /  6.4km/h 17.0mph /  27.4km/h 49% 0.00in /  0mm 1158.0 W/m2
14:15 81.5 °F /  27.5 °C 59.9 °F /  15.5 °C 29.72in /  1006.3hPa ESE 2.9mph /  4.7km/h 11.0mph /  17.7km/h 48% 0.00in /  0mm 265.0 W/m2
14:21 80.8 °F /  27.1 °C 61.0 °F /  16.1 °C 29.72in /  1006.3hPa East 2.0mph /  3.2km/h 9.0mph /  14.5km/h 51% 0.00in /  0mm 1241.0 W/m2
14:27 81.0 °F /  27.2 °C 60.1 °F /  15.6 °C 29.72in /  1006.3hPa SE 6.0mph /  9.7km/h 14.0mph /  22.5km/h 49% 0.00in /  0mm 802.0 W/m2
14:34 81.7 °F /  27.6 °C 60.6 °F /  15.9 °C 29.71in /  1006hPa East 2.9mph /  4.7km/h 12.0mph /  19.3km/h 49% 0.00in /  0mm 1044.0 W/m2
14:40 82.2 °F /  27.9 °C 59.9 °F /  15.5 °C 29.71in /  1006hPa South 4.9mph /  7.9km/h 9.0mph /  14.5km/h 47% 0.00in /  0mm 953.0 W/m2
14:46 82.6 °F /  28.1 °C 62.1 °F /  16.7 °C 29.71in /  1006hPa East 6.0mph /  9.7km/h 8.0mph /  12.9km/h 50% 0.00in /  0mm 986.0 W/m2
14:52 83.1 °F /  28.4 °C 60.8 °F /  16 °C 29.70in /  1005.6hPa SE 4.9mph /  7.9km/h 7.0mph /  11.3km/h 47% 0.00in /  0mm 969.0 W/m2
14:58 83.5 °F /  28.6 °C 61.2 °F /  16.2 °C 29.70in /  1005.6hPa SE 6.0mph /  9.7km/h 6.0mph /  9.7km/h 47% 0.00in /  0mm 928.0 W/m2
15:04 83.7 °F /  28.7 °C 58.8 °F /  14.9 °C 29.69in /  1005.3hPa SE 6.9mph /  11.1km/h 11.0mph /  17.7km/h 43% 0.00in /  0mm 944.0 W/m2
15:10 83.7 °F /  28.7 °C 60.1 °F /  15.6 °C 29.69in /  1005.3hPa North 4.0mph /  6.4km/h 7.0mph /  11.3km/h 45% 0.00in /  0mm 847.0 W/m2
15:16 83.7 °F /  28.7 °C 59.4 °F /  15.2 °C 29.69in /  1005.3hPa SSE 8.9mph /  14.3km/h 11.0mph /  17.7km/h 44% 0.00in /  0mm 851.0 W/m2
15:23 83.7 °F /  28.7 °C 58.8 °F /  14.9 °C 29.69in /  1005.3hPa ESE 6.9mph /  11.1km/h 9.0mph /  14.5km/h 43% 0.00in /  0mm 814.0 W/m2
15:29 83.5 °F /  28.6 °C 57.9 °F /  14.4 °C 29.68in /  1005hPa ESE 4.9mph /  7.9km/h 7.0mph /  11.3km/h 42% 0.00in /  0mm 814.0 W/m2
15:35 83.8 °F /  28.8 °C 59.5 °F /  15.3 °C 29.68in /  1005hPa ESE 8.1mph /  13km/h 9.0mph /  14.5km/h 44% 0.00in /  0mm 817.0 W/m2
15:41 84.4 °F /  29.1 °C 58.8 °F /  14.9 °C 29.68in /  1005hPa NE 2.0mph /  3.2km/h 7.0mph /  11.3km/h 42% 0.00in /  0mm 499.0 W/m2
15:47 84.6 °F /  29.2 °C 59.5 °F /  15.3 °C 29.68in /  1005hPa South 6.9mph /  11.1km/h 9.0mph /  14.5km/h 43% 0.00in /  0mm 830.0 W/m2
15:53 84.6 °F /  29.2 °C 60.3 °F /  15.7 °C 29.68in /  1005hPa SSE 11.0mph /  17.7km/h 14.0mph /  22.5km/h 44% 0.00in /  0mm 705.0 W/m2
15:59 84.2 °F /  29 °C 59.4 °F /  15.2 °C 29.68in /  1005hPa East 2.0mph /  3.2km/h 7.0mph /  11.3km/h 43% 0.00in /  0mm 269.0 W/m2
16:05 83.8 °F /  28.8 °C 59.5 °F /  15.3 °C 29.67in /  1004.6hPa SE 8.1mph /  13km/h 8.1mph /  13km/h 44% 0.00in /  0mm 684.0 W/m2
16:12 83.5 °F /  28.6 °C 60.4 °F /  15.8 °C 29.68in /  1005hPa East 0.9mph /  1.4km/h 12.0mph /  19.3km/h 46% 0.00in /  0mm 120.0 W/m2
16:18 79.7 °F /  26.5 °C 64.6 °F /  18.1 °C 29.70in /  1005.6hPa ENE 8.1mph /  13km/h 16.0mph /  25.7km/h 60% 0.00in /  0mm 95.0 W/m2
16:24 74.8 °F /  23.8 °C 63.5 °F /  17.5 °C 29.70in /  1005.6hPa NE 4.0mph /  6.4km/h 11.0mph /  17.7km/h 68% 0.00in /  0mm 81.0 W/m2
16:30 72.3 °F /  22.4 °C 63.5 °F /  17.5 °C 29.71in /  1006hPa SE 4.9mph /  7.9km/h 9.0mph /  14.5km/h 74% 0.01in /  0.25mm 49.0 W/m2
16:36 70.5 °F /  21.4 °C 63.7 °F /  17.6 °C 29.71in /  1006hPa ENE 4.9mph /  7.9km/h 10.0mph /  16.1km/h 79% 0.08in /  2.03mm 44.0 W/m2
16:42 69.1 °F /  20.6 °C 64.0 °F /  17.8 °C 29.71in /  1006hPa NE 4.0mph /  6.4km/h 9.0mph /  14.5km/h 84% 0.15in /  3.81mm 39.0 W/m2
16:48 68.0 °F /  20 °C 63.3 °F /  17.4 °C 29.71in /  1006hPa East 2.0mph /  3.2km/h 5.0mph /  8km/h 85% 0.20in /  5.08mm 37.0 W/m2
16:54 67.5 °F /  19.7 °C 63.1 °F /  17.3 °C 29.70in /  1005.6hPa Calm   4.0mph /  6.4km/h 86% 0.21in /  5.33mm 40.0 W/m2
17:01 67.3 °F /  19.6 °C 63.7 °F /  17.6 °C 29.70in /  1005.6hPa Calm   3.0mph /  4.8km/h 88% 0.22in /  5.59mm 44.0 W/m2
17:07 67.3 °F /  19.6 °C 63.9 °F /  17.7 °C 29.70in /  1005.6hPa Calm   2.0mph /  3.2km/h 89% 0.22in /  5.59mm 49.0 W/m2
17:13 67.3 °F /  19.6 °C 63.9 °F /  17.7 °C 29.71in /  1006hPa Calm   1.0mph /  1.6km/h 89% 0.22in /  5.59mm 51.0 W/m2
17:19 67.1 °F /  19.5 °C 63.5 °F /  17.5 °C 29.71in /  1006hPa Calm     88% 0.22in /  5.59mm 47.0 W/m2
17:25 67.1 °F /  19.5 °C 63.7 °F /  17.6 °C 29.72in /  1006.3hPa Calm   1.0mph /  1.6km/h 89% 0.21in /  5.33mm 42.0 W/m2
17:31 67.3 °F /  19.6 °C 64.2 °F /  17.9 °C 29.72in /  1006.3hPa Calm     90% 0.17in /  4.32mm 53.0 W/m2
17:37 67.5 °F /  19.7 °C 64.4 °F /  18 °C 29.72in /  1006.3hPa Calm   1.0mph /  1.6km/h 90% 0.10in /  2.54mm 62.0 W/m2
17:44 67.5 °F /  19.7 °C 64.4 °F /  18 °C 29.72in /  1006.3hPa Calm   2.0mph /  3.2km/h 90% 0.03in /  0.76mm 69.0 W/m2
17:50 67.5 °F /  19.7 °C 64.0 °F /  17.8 °C 29.71in /  1006hPa Calm   1.0mph /  1.6km/h 89% 0.02in /  0.51mm 70.0 W/m2
17:56 67.6 °F /  19.8 °C 64.9 °F /  18.3 °C 29.71in /  1006hPa Calm     91% 0.00in /  0mm 76.0 W/m2
18:02 67.6 °F /  19.8 °C 64.6 °F /  18.1 °C 29.71in /  1006hPa Calm   1.0mph /  1.6km/h 90% 0.00in /  0mm 72.0 W/m2
18:08 67.8 °F /  19.9 °C 64.8 °F /  18.2 °C 29.71in /  1006hPa Calm     90% 0.00in /  0mm 69.0 W/m2
18:14 67.8 °F /  19.9 °C 64.2 °F /  17.9 °C 29.71in /  1006hPa Calm     88% 0.00in /  0mm 63.0 W/m2
18:20 67.8 °F /  19.9 °C 64.2 °F /  17.9 °C 29.71in /  1006hPa Calm     88% 0.00in /  0mm 58.0 W/m2
18:26 67.6 °F /  19.8 °C 64.0 °F /  17.8 °C 29.71in /  1006hPa Calm     88% 0.00in /  0mm 44.0 W/m2
19:30 67.6 °F /  19.8 °C 64.6 °F /  18.1 °C 29.72in /  1006.3hPa SSE 0.9mph /  1.4km/h 2.0mph /  3.2km/h 90% 0.00in /  0mm 0.0 W/m2
19:36 67.5 °F /  19.7 °C 64.4 °F /  18 °C 29.72in /  1006.3hPa Calm     90% 0.00in /  0mm 0.0 W/m2
19:42 67.5 °F /  19.7 °C 64.8 °F /  18.2 °C 29.73in /  1006.7hPa SE 0.9mph /  1.4km/h 1.0mph /  1.6km/h 91% 0.00in /  0mm 0.0 W/m2
19:48 67.5 °F /  19.7 °C 64.8 °F /  18.2 °C 29.73in /  1006.7hPa Calm     91% 0.00in /  0mm 0.0 W/m2
19:54 67.5 °F /  19.7 °C 64.8 °F /  18.2 °C 29.74in /  1007hPa ESE 2.9mph /  4.7km/h 3.0mph /  4.8km/h 91% 0.00in /  0mm 0.0 W/m2
20:00 67.5 °F /  19.7 °C 64.8 °F /  18.2 °C 29.73in /  1006.7hPa SSE 2.9mph /  4.7km/h 4.0mph /  6.4km/h 91% 0.00in /  0mm 0.0 W/m2
20:06 67.3 °F /  19.6 °C 64.2 °F /  17.9 °C 29.74in /  1007hPa Calm   1.0mph /  1.6km/h 90% 0.00in /  0mm 0.0 W/m2
20:12 67.1 °F /  19.5 °C 64.0 °F /  17.8 °C 29.74in /  1007hPa Calm     90% 0.00in /  0mm 0.0 W/m2
20:18 66.9 °F /  19.4 °C 64.2 °F /  17.9 °C 29.74in /  1007hPa Calm     91% 0.00in /  0mm 0.0 W/m2
20:24 66.9 °F /  19.4 °C 64.2 °F /  17.9 °C 29.74in /  1007hPa Calm   1.0mph /  1.6km/h 91% 0.00in /  0mm 0.0 W/m2
20:30 66.7 °F /  19.3 °C 64.0 °F /  17.8 °C 29.74in /  1007hPa Calm     91% 0.00in /  0mm 0.0 W/m2
20:36 66.7 °F /  19.3 °C 64.0 °F /  17.8 °C 29.75in /  1007.3hPa Calm   3.0mph /  4.8km/h 91% 0.00in /  0mm 0.0 W/m2
20:42 66.7 °F /  19.3 °C 64.0 °F /  17.8 °C 29.75in /  1007.3hPa Calm   1.0mph /  1.6km/h 91% 0.00in /  0mm 0.0 W/m2
20:48 66.6 °F /  19.2 °C 63.9 °F /  17.7 °C 29.75in /  1007.3hPa Calm   2.0mph /  3.2km/h 91% 0.00in /  0mm 0.0 W/m2
20:54 66.4 °F /  19.1 °C 62.8 °F /  17.1 °C 29.76in /  1007.7hPa NNE 2.0mph /  3.2km/h 3.0mph /  4.8km/h 88% 0.00in /  0mm 0.0 W/m2
21:00 66.4 °F /  19.1 °C 63.0 °F /  17.2 °C 29.77in /  1008hPa SW 0.9mph /  1.4km/h 6.0mph /  9.7km/h 89% 0.00in /  0mm 0.0 W/m2
21:06 66.4 °F /  19.1 °C 62.8 °F /  17.1 °C 29.77in /  1008hPa NE 2.0mph /  3.2km/h 2.0mph /  3.2km/h 88% 0.00in /  0mm 0.0 W/m2
21:12 66.4 °F /  19.1 °C 62.8 °F /  17.1 °C 29.77in /  1008hPa NE 2.0mph /  3.2km/h 2.0mph /  3.2km/h 88% 0.00in /  0mm 0.0 W/m2
21:18 66.4 °F /  19.1 °C 62.8 °F /  17.1 °C 29.77in /  1008hPa Calm   1.0mph /  1.6km/h 88% 0.00in /  0mm 0.0 W/m2
21:24 66.4 °F /  19.1 °C 63.0 °F /  17.2 °C 29.78in /  1008.4hPa Calm     89% 0.00in /  0mm 0.0 W/m2
21:30 66.2 °F /  19 °C 62.8 °F /  17.1 °C 29.78in /  1008.4hPa Calm     89% 0.00in /  0mm 0.0 W/m2
21:36 66.2 °F /  19 °C 62.8 °F /  17.1 °C 29.78in /  1008.4hPa Calm     89% 0.00in /  0mm 0.0 W/m2
21:42 66.2 °F /  19 °C 63.1 °F /  17.3 °C 29.78in /  1008.4hPa Calm     90% 0.00in /  0mm 0.0 W/m2
21:48 66.2 °F /  19 °C 63.1 °F /  17.3 °C 29.78in /  1008.4hPa Calm     90% 0.00in /  0mm 0.0 W/m2
21:54 66.2 °F /  19 °C 63.1 °F /  17.3 °C 29.78in /  1008.4hPa Calm     90% 0.00in /  0mm 0.0 W/m2
22:00 66.2 °F /  19 °C 63.1 °F /  17.3 °C 29.78in /  1008.4hPa Calm     90% 0.00in /  0mm 0.0 W/m2
22:06 66.4 °F /  19.1 °C 63.7 °F /  17.6 °C 29.78in /  1008.4hPa Calm     91% 0.00in /  0mm 0.0 W/m2
22:12 66.2 °F /  19 °C 63.5 °F /  17.5 °C 29.78in /  1008.4hPa Calm     91% 0.00in /  0mm 0.0 W/m2
22:18 66.4 °F /  19.1 °C 63.0 °F /  17.2 °C 29.78in /  1008.4hPa Calm   1.0mph /  1.6km/h 89% 0.00in /  0mm 0.0 W/m2
22:24 66.4 °F /  19.1 °C 63.3 °F /  17.4 °C 29.79in /  1008.7hPa Calm     90% 0.00in /  0mm 0.0 W/m2
22:30 66.4 °F /  19.1 °C 63.3 °F /  17.4 °C 29.78in /  1008.4hPa Calm     90% 0.00in /  0mm 0.0 W/m2
22:36 66.4 °F /  19.1 °C 63.3 °F /  17.4 °C 29.78in /  1008.4hPa Calm     90% 0.00in /  0mm 0.0 W/m2
22:42 66.4 °F /  19.1 °C 63.3 °F /  17.4 °C 29.78in /  1008.4hPa Calm     90% 0.00in /  0mm 0.0 W/m2
22:48 66.4 °F /  19.1 °C 63.3 °F /  17.4 °C 29.79in /  1008.7hPa ESE 2.0mph /  3.2km/h 3.0mph /  4.8km/h 90% 0.00in /  0mm 0.0 W/m2
22:54 66.4 °F /  19.1 °C 63.3 °F /  17.4 °C 29.78in /  1008.4hPa Calm   1.0mph /  1.6km/h 90% 0.00in /  0mm 0.0 W/m2
23:00 66.2 °F /  19 °C 62.6 °F /  17 °C 29.79in /  1008.7hPa Calm   1.0mph /  1.6km/h 88% 0.00in /  0mm 0.0 W/m2
23:06 66.0 °F /  18.9 °C 62.1 °F /  16.7 °C 29.78in /  1008.4hPa Calm     87% 0.00in /  0mm 0.0 W/m2
23:12 66.0 °F /  18.9 °C 62.4 °F /  16.9 °C 29.79in /  1008.7hPa Calm     88% 0.00in /  0mm 0.0 W/m2
23:19 66.0 °F /  18.9 °C 62.6 °F /  17 °C 29.79in /  1008.7hPa Calm   1.0mph /  1.6km/h 89% 0.00in /  0mm 0.0 W/m2
23:25 66.0 °F /  18.9 °C 62.6 °F /  17 °C 29.79in /  1008.7hPa Calm     89% 0.00in /  0mm 0.0 W/m2
23:31 66.0 °F /  18.9 °C 62.4 °F /  16.9 °C 29.78in /  1008.4hPa Calm   2.0mph /  3.2km/h 88% 0.00in /  0mm 0.0 W/m2
23:37 65.8 °F /  18.8 °C 61.5 °F /  16.4 °C 29.78in /  1008.4hPa Calm   3.0mph /  4.8km/h 86% 0.00in /  0mm 0.0 W/m2
23:43 65.8 °F /  18.8 °C 60.8 °F /  16 °C 29.78in /  1008.4hPa NE 2.0mph /  3.2km/h 2.0mph /  3.2km/h 84% 0.00in /  0mm 0.0 W/m2
23:49 66.0 °F /  18.9 °C 61.7 °F /  16.5 °C 29.78in /  1008.4hPa Calm   2.0mph /  3.2km/h 86% 0.00in /  0mm 0.0 W/m2
23:53 65.8 °F /  18.8 °C 61.9 °F /  16.6 °C 29.78in /  1008.4hPa Calm     87% 0.00in /  0mm 0.0 W/m2
Olympia, Windhoek, Namibia
Compliments of Weather Underground - 3 mb